This is the latest recevied weather packets stored in our database for station/object 5B4APJ-13. If no packets are shown the sender has not sent any weather packets the latest 10 day(s).
| Time | Temp. | Humidity | Pressure | Rain* | Wind** | Luminosity | Snow |
|---|---|---|---|---|---|---|---|
| 1777932423 | 11.67° C | 69% | 1011.1 hPa | 0 mm | 0 m/s | 0 W/m² | - |
| 1777932123 | 11.67° C | 70% | 1011.1 hPa | 0 mm | 0.45 m/s, 181° | 0 W/m² | - |
| 1777931822 | 11.67° C | 70% | 1011.2 hPa | 0 mm | 0.89 m/s, 237° | 0 W/m² | - |
| 1777931524 | 11.67° C | 70% | 1011.2 hPa | 0 mm | 0.45 m/s, 190° | 0 W/m² | - |
| 1777931223 | 11.11° C | 71% | 1011.3 hPa | 0 mm | 0.89 m/s, 168° | 0 W/m² | - |
| 1777930923 | 11.11° C | 73% | 1011.1 hPa | 0 mm | 1.79 m/s, 183° | 0 W/m² | - |
| 1777930623 | 10.56° C | 74% | 1011.3 hPa | 0 mm | 1.79 m/s, 168° | 0 W/m² | - |
| 1777930323 | 10.56° C | 72% | 1011.4 hPa | 0 mm | 0 m/s | 0 W/m² | - |
| 1777930024 | 10.56° C | 72% | 1011.3 hPa | 0 mm | 0 m/s | 0 W/m² | - |
| 1777929723 | 10° C | 74% | 1011.5 hPa | 0 mm | 0.45 m/s, 100° | 0 W/m² | - |
| 1777929423 | 10° C | 76% | 1011.5 hPa | 0 mm | 0.45 m/s, 29° | 0 W/m² | - |
| 1777929123 | 10.56° C | 71% | 1011.4 hPa | 0 mm | 0 m/s | 0 W/m² | - |
| 1777928823 | 10.56° C | 71% | 1011.6 hPa | 0 mm | 0.45 m/s, 236° | 0 W/m² | - |
| 1777928523 | 10.56° C | 72% | 1011.5 hPa | 0 mm | 0 m/s | 0 W/m² | - |
| 1777928223 | 10.56° C | 72% | 1011.2 hPa | 0 mm | 0.45 m/s, 236° | 0 W/m² | - |
| 1777927923 | 11.11° C | 71% | 1011.1 hPa | 0 mm | 0.45 m/s, 236° | 0 W/m² | - |
| 1777927624 | 11.11° C | 70% | 1011.5 hPa | 0 mm | 0.89 m/s, 236° | 0 W/m² | - |
| 1777927323 | 11.11° C | 68% | 1011.2 hPa | 0 mm | 0 m/s | 0 W/m² | - |
| 1777927023 | 11.11° C | 69% | 1011.5 hPa | 0 mm | 0.45 m/s, 148° | 0 W/m² | - |
| 1777926723 | 11.11° C | 72% | 1011.5 hPa | 0 mm | 0.45 m/s, 148° | 0 W/m² | - |
| 1777926424 | 11.11° C | 71% | 1011.2 hPa | 0 mm | 0 m/s | 0 W/m² | - |
| 1777926123 | 11.11° C | 73% | 1011.4 hPa | 0 mm | 0 m/s | 0 W/m² | - |
| 1777925823 | 11.11° C | 72% | 1011.5 hPa | 0 mm | 0 m/s | 0 W/m² | - |
| 1777925523 | 11.11° C | 72% | 1011.7 hPa | 0 mm | 0.89 m/s, 146° | 0 W/m² | - |
| 1777925223 | 11.11° C | 70% | 1011.4 hPa | 0 mm | 0.45 m/s, 235° | 0 W/m² | - |
* Rain latest hour (hover to see other rain measurements)
** Current wind speed in m/s (hover to see current wind gust speed)